Terminal Aerodrome Forecast
Issued by NWS

Home | Current Version | Previous Version | Text Only | Print | Product List | Glossary On
Versions: 1 2 3 4 5 6 7 8 9 10 11 12 13 14 15 16
000
FTUS43 KSGF 131100
TAFJLN
TAF
KJLN 131120Z 1312/1412 21008KT P6SM SCT090 WS017/24040KT
     FM131400 23015G22KT P6SM SCT050 BKN090
     FM132200 VRB06KT P6SM SCT050 BKN250 PROB30 1323/1405 6SM -TSRA
      BR OVC040CB
     FM140500 01004KT P6SM SCT050 BKN250 PROB30 1405/1410 6SM -TSRA
      BR OVC040CB=

USA.gov is the U.S. government's official web portal to all federal, state and local government web resources and services.